Aikawa, Japan

1:07 PM JST on 三月 24, 2017 (GMT +0900)
Mustang Way | | Change Station

高度 88 ft 37.81 °N, 138.23 °E | Updated 16 seconds ago

だいたい曇
だいたい曇
48.2 °F
体感気温 48 °F
1.9
風 変数 風 から 南南西
Gusts 5.0 Mph

今日
高い -- | 低 -- °F
--% 降水確率
昨日
高い -- | 低 -- °F
Precip. -- インチ
気圧 30.06 インチ
視程 6.2 マイル
わずか 2000 ft
やや曇 3000 ft
だいたい曇 4000 ft
体感気温(寒さ) 48 °F
露点温度 34 °F
湿度 57%
降水 0.00 インチ
積雪深 利用不可。
5:44 AM 6:02 PM
二十六夜, 18% visible
METAR RJSN 240400Z 29019KT 9999 FEW020 SCT030 BKN040 07/M04 Q1018
気圧 30.06 インチ
視程 6.2 マイル
わずか 2000 ft
やや曇 3000 ft
だいたい曇 4000 ft
体感気温(寒さ) 48 °F
露点温度 34 °F
湿度 57%
降水 0.00 インチ
積雪深 利用不可。
5:44 AM 6:02 PM
二十六夜, 18% visible
METAR RJSN 240400Z 29019KT 9999 FEW020 SCT030 BKN040 07/M04 Q1018

Get Severe Weather Alerts

Thanks for signing up!

Be on the lookout for a verification email in your inbox.

You'll start receiving the daily forecast at 8 AM.

×

10-Day Weather Forecast

No radar image for this location.
×

Almanac

天文

Mar. 24, 2017 入り
実時間
常用薄明
航海薄明
天文薄明
可視光の長さ
可照時間
Tomorrow will be .
, % of the Moon is Illuminated

今日の極値

Country Highs Country Lows

Community

WunderPhotos

Upload Photos

1,962,540 写真がアップロードされました!

WunderBlog® & News

Nearby

空気品質

  空気品質 大気質指数 汚染物質
Not available.

積雪深

Station Depth 高度

地震活動

Distance Mag. Time & Date
Minimum magnitude displayed is 2.5.

地震活動

Distance Mag. Time & Date
Minimum magnitude displayed is 2.5.

沿岸の水温

地名 気温

Stations

最寄りの気象観測所

観測所位置 温度 体感気温(寒さ) 露点温度 湿度 Precip. 高度 更新日時 タイプする